Main page
Satellite images 10-day forecastsClimateMarine weather Cyclones Lightning AirportsFAQ Newsletter About
Weather : Europe Africa North America South America Asia Australia-Oceania Others
Languages Contact

Gdańsk, Poland

Gdańsk Lech Wałęsa Airport

latitude: 54-23N, longitude: 018-28E, elevation: 135 m


METAR: EPGD 271830Z 27003KT 7000 NSC 04/03 Q1013
TAF: EPGD 271730Z 2718/2818 27005KT 8000 BKN030 BECMG 2718/2720 4000 BR PROB40 2721/2807 1500 BR BKN002 PROB40 TEMPO 2810/2818 SHRA BKN020CB

Time: 20:04 (19:04 UTC)

Current weather observation

The report was made 34 minutes ago, at 18:30 UTC
Wind 3 kt from the West
Temperature 4°C
Humidity 93%
Pressure 1013 hPa
Visibility: 7000 m

Change units

Forecast

The report was made 1 hour and 34 minutes ago, at 17:30 UTC
Forecast valid from 27 at 18 UTC to 28 at 18 UTC
Wind 5 kt from the West
Visibility: 8000 m
Broken clouds at a height of 3000 ft
Becoming
from 27 at 18 UTC to 27 at 20 UTC
Visibility: 4000 m
mist
Probability 40%
from 27 at 21 UTC to 28 at 07 UTC
Visibility: 1500 m
Broken clouds at a height of 200 ft
mist
Probability 40% :
Temporary
from 28 at 10 UTC to 28 at 18 UTC
Broken clouds at a height of 2000 ft, Cumulonimbus.
rain showers
The information on this site is subject to a disclaimer
Weather : Europe Africa North America South America Asia Australia-Oceania Others
Satellite images 10-day forecastsClimateMarine weather Cyclones Lightning AirportsFAQ Languages Contact Newsletter About